Time;durP1;ratioP1;P1;durP2;ratioP2;P2;SDS_P1;SDS_P2;PMS_P1;PMS_P2;Temp;Humidity;BMP_temperature;BMP_pressure;BME280_temperature;BME280_humidity;BME280_pressure;Samples;Min_cycle;Max_cycle;Signal;HPM_P1;HPM_P2
2023/09/21 18:00:12;;;;;;;4.05;1.73;;;;;;;;;;5866030;27;20405;-75
2023/09/21 18:03:04;;;;;;;5.43;1.92;;;;;;;;;;5911264;28;20040;-74
2023/09/21 18:05:55;;;;;;;3.72;2.03;;;;;;;;;;5910297;28;20495;-74
2023/09/21 18:08:45;;;;;;;7.05;2.28;;;;;;;;;;5883151;28;20090;-75
2023/09/21 18:11:37;;;;;;;6.07;1.67;;;;;;;;;;5906600;28;20127;-75
2023/09/21 18:14:28;;;;;;;11.75;1.52;;;;;;;;;;5914234;28;20586;-75
2023/09/21 18:17:19;;;;;;;3.78;1.65;;;;;;;;;;5908917;28;20044;-74
2023/09/21 18:20:12;;;;;;;3.40;1.42;;;;;;;;;;5951951;28;20051;-74
2023/09/21 18:23:03;;;;;;;4.97;1.90;;;;;;;;;;5932013;28;20700;-74
2023/09/21 18:25:54;;;;;;;9.25;2.35;;;;;;;;;;5927543;28;20542;-75
2023/09/21 18:28:45;;;;;;;2.00;1.25;;;;;;;;;;5938316;28;20048;-76
2023/09/21 18:31:38;;;;;;;2.30;1.45;;;;;;;;;;5938474;28;20048;-74
2023/09/21 18:34:29;;;;;;;1.35;1.02;;;;;;;;;;5930440;28;20143;-74
2023/09/21 18:37:20;;;;;;;1.30;1.20;;;;;;;;;;5928635;28;20416;-74
2023/09/21 18:40:11;;;;;;;3.78;1.40;;;;;;;;;;5943776;28;20069;-75
2023/09/21 18:43:03;;;;;;;4.10;1.77;;;;;;;;;;5913921;28;20531;-76
2023/09/21 18:45:58;;;;;;;3.40;1.95;;;;;;;;;;5888842;28;20044;-75
2023/09/21 18:48:49;;;;;;;5.00;1.58;;;;;;;;;;5910987;28;20364;-74
2023/09/21 18:51:39;;;;;;;4.43;2.05;;;;;;;;;;5939398;28;20470;-74
2023/09/21 18:54:31;;;;;;;5.70;1.30;;;;;;;;;;5928859;28;20064;-77
2023/09/21 18:57:22;;;;;;;4.07;1.48;;;;;;;;;;5910862;28;20119;-74
2023/09/21 19:00:15;;;;;;;1.00;0.90;;;;;;;;;;5937894;28;20596;-74
2023/09/21 19:03:08;;;;;;;2.58;1.05;;;;;;;;;;5910855;28;20051;-76
2023/09/21 19:05:59;;;;;;;2.55;1.42;;;;;;;;;;5929389;28;20055;-75
2023/09/21 19:08:51;;;;;;;2.80;1.40;;;;;;;;;;5939021;28;20048;-74
2023/09/21 19:11:42;;;;;;;0.88;0.70;;;;;;;;;;5925208;28;20059;-74
2023/09/21 19:14:33;;;;;;;8.10;1.52;;;;;;;;;;5913320;28;20167;-74
2023/09/21 19:17:29;;;;;;;3.58;1.98;;;;;;;;;;5913174;28;20040;-74
2023/09/21 19:20:23;;;;;;;2.63;1.70;;;;;;;;;;5905002;28;20045;-74
2023/09/21 19:23:14;;;;;;;2.65;1.23;;;;;;;;;;5922368;28;20045;-73
2023/09/21 19:26:05;;;;;;;0.80;0.60;;;;;;;;;;5914603;28;20049;-72
2023/09/21 19:28:56;;;;;;;2.22;1.40;;;;;;;;;;5922174;28;20036;-71
2023/09/21 19:31:49;;;;;;;1.80;1.25;;;;;;;;;;5922276;28;20044;-72
2023/09/21 19:34:39;;;;;;;3.95;1.52;;;;;;;;;;5912224;28;20052;-73
2023/09/21 19:37:30;;;;;;;1.85;1.23;;;;;;;;;;5918980;28;20483;-72
2023/09/21 19:40:21;;;;;;;2.80;1.20;;;;;;;;;;5920035;28;20051;-72
2023/09/21 19:43:12;;;;;;;2.72;0.85;;;;;;;;;;5922594;28;20135;-72
2023/09/21 19:46:02;;;;;;;1.70;1.55;;;;;;;;;;5919865;28;20052;-73
2023/09/21 19:48:53;;;;;;;4.35;1.80;;;;;;;;;;5917454;28;20124;-73
2023/09/21 19:51:44;;;;;;;1.23;0.95;;;;;;;;;;5914030;28;20379;-72
2023/09/21 19:54:35;;;;;;;1.08;0.93;;;;;;;;;;5922343;28;20047;-72
2023/09/21 19:57:35;;;;;;;1.70;1.58;;;;;;;;;;5881913;28;20482;-72
2023/09/21 20:00:26;;;;;;;1.23;1.10;;;;;;;;;;5921919;28;20102;-72
2023/09/21 20:03:17;;;;;;;2.10;1.25;;;;;;;;;;5910156;28;20082;-72
2023/09/21 20:06:10;;;;;;;1.23;0.98;;;;;;;;;;5920729;28;20055;-71
2023/09/21 20:09:01;;;;;;;1.50;1.40;;;;;;;;;;5934046;28;20062;-72
2023/09/21 20:11:53;;;;;;;3.03;1.33;;;;;;;;;;5936573;28;20406;-72
2023/09/21 20:14:44;;;;;;;2.50;1.45;;;;;;;;;;5935190;28;20051;-72
2023/09/21 20:17:35;;;;;;;3.88;2.03;;;;;;;;;;5932788;28;20057;-72
2023/09/21 20:20:26;;;;;;;4.43;1.67;;;;;;;;;;5902052;28;20435;-71
2023/09/21 20:23:17;;;;;;;1.92;1.35;;;;;;;;;;5912862;28;20049;-72
2023/09/21 20:26:08;;;;;;;2.53;1.40;;;;;;;;;;5893911;28;20044;-72
2023/09/21 20:28:59;;;;;;;1.25;0.85;;;;;;;;;;5911593;28;20405;-72
2023/09/21 20:31:49;;;;;;;4.15;1.20;;;;;;;;;;5925599;28;20035;-73
2023/09/21 20:34:40;;;;;;;2.42;1.58;;;;;;;;;;5935109;28;20044;-73
2023/09/21 20:37:31;;;;;;;2.67;1.60;;;;;;;;;;5935210;28;20471;-72
2023/09/21 20:40:22;;;;;;;1.75;1.40;;;;;;;;;;5916917;28;20780;-72
2023/09/21 20:43:13;;;;;;;2.13;1.40;;;;;;;;;;5917503;28;20498;-73
2023/09/21 20:46:04;;;;;;;6.07;1.10;;;;;;;;;;5917380;28;20059;-71
2023/09/21 20:48:55;;;;;;;1.05;0.90;;;;;;;;;;5935497;28;20040;-73
2023/09/21 20:51:46;;;;;;;1.70;1.05;;;;;;;;;;5935347;28;20090;-72
2023/09/21 20:54:37;;;;;;;2.63;1.25;;;;;;;;;;5934826;28;20048;-71
2023/09/21 20:57:28;;;;;;;1.08;0.98;;;;;;;;;;5932494;28;20093;-71
2023/09/21 21:00:22;;;;;;;6.07;1.73;;;;;;;;;;5912903;28;20132;-72
2023/09/21 21:03:13;;;;;;;4.85;1.60;;;;;;;;;;5910618;28;20040;-73
2023/09/21 21:06:04;;;;;;;0.77;0.70;;;;;;;;;;5910610;28;20048;-73
2023/09/21 21:08:55;;;;;;;1.92;1.10;;;;;;;;;;5911573;28;20051;-73
2023/09/21 21:11:45;;;;;;;0.80;0.80;;;;;;;;;;5910745;28;20040;-72
2023/09/21 21:14:36;;;;;;;2.72;1.33;;;;;;;;;;5911037;28;20067;-73
2023/09/21 21:17:28;;;;;;;0.95;0.85;;;;;;;;;;5910178;28;20060;-73
2023/09/21 21:20:19;;;;;;;1.95;0.95;;;;;;;;;;5910380;28;20053;-72
2023/09/21 21:23:10;;;;;;;4.55;1.38;;;;;;;;;;5910920;28;20078;-72
2023/09/21 21:26:01;;;;;;;1.88;1.00;;;;;;;;;;5910245;28;20050;-72
2023/09/21 21:28:51;;;;;;;4.00;2.05;;;;;;;;;;5893123;28;20419;-73
2023/09/21 21:31:42;;;;;;;1.13;0.68;;;;;;;;;;5910566;28;20476;-72
2023/09/21 21:34:33;;;;;;;2.40;1.27;;;;;;;;;;5910306;28;20041;-72
2023/09/21 21:37:24;;;;;;;1.77;1.33;;;;;;;;;;5910363;28;20049;-73
2023/09/21 21:40:15;;;;;;;1.00;1.00;;;;;;;;;;5910487;28;20049;-72
2023/09/21 21:43:07;;;;;;;2.25;1.65;;;;;;;;;;5910653;28;20095;-73
2023/09/21 21:45:58;;;;;;;2.75;1.50;;;;;;;;;;5910918;28;20410;-72
2023/09/21 21:48:48;;;;;;;2.72;1.13;;;;;;;;;;5910390;28;20087;-75
2023/09/21 21:51:39;;;;;;;3.70;1.48;;;;;;;;;;5910374;28;20040;-74
2023/09/21 21:54:30;;;;;;;1.23;0.80;;;;;;;;;;5910406;28;20036;-74
2023/09/21 21:57:21;;;;;;;13.77;1.90;;;;;;;;;;5910103;28;20071;-75
2023/09/21 22:00:17;;;;;;;3.58;2.25;;;;;;;;;;5892484;28;20075;-75
2023/09/21 22:03:08;;;;;;;2.58;1.40;;;;;;;;;;5910323;28;20040;-75
2023/09/21 22:06:00;;;;;;;2.10;1.38;;;;;;;;;;5893070;28;20063;-74
2023/09/21 22:08:53;;;;;;;1.75;1.10;;;;;;;;;;5909888;28;20045;-74
2023/09/21 22:11:45;;;;;;;1.67;0.95;;;;;;;;;;5886809;28;20051;-75
2023/09/21 22:14:36;;;;;;;2.25;1.52;;;;;;;;;;5886554;28;20052;-74
2023/09/21 22:17:27;;;;;;;9.77;1.60;;;;;;;;;;5886755;28;20041;-76
2023/09/21 22:20:21;;;;;;;1.83;1.48;;;;;;;;;;5885422;28;20048;-75
2023/09/21 22:23:12;;;;;;;1.48;1.17;;;;;;;;;;5869777;28;20049;-74
2023/09/21 22:26:10;;;;;;;2.35;1.60;;;;;;;;;;5886397;28;20056;-76
2023/09/21 22:29:03;;;;;;;1.13;1.02;;;;;;;;;;5862064;28;20042;-75
2023/09/21 22:31:53;;;;;;;6.15;1.08;;;;;;;;;;5869587;28;20139;-74
2023/09/21 22:34:44;;;;;;;1.00;0.73;;;;;;;;;;5886620;28;20045;-76
2023/09/21 22:37:35;;;;;;;3.20;1.85;;;;;;;;;;5886152;28;20059;-76
2023/09/21 22:40:26;;;;;;;1.40;1.25;;;;;;;;;;5886498;28;20072;-76
2023/09/21 22:43:18;;;;;;;1.35;1.20;;;;;;;;;;5886433;28;20045;-75
2023/09/21 22:46:09;;;;;;;7.13;1.55;;;;;;;;;;5889363;28;20128;-75
2023/09/21 22:49:00;;;;;;;1.00;0.90;;;;;;;;;;5891342;28;20049;-74
2023/09/21 22:51:50;;;;;;;3.40;2.42;;;;;;;;;;5891212;28;20045;-75
2023/09/21 22:54:41;;;;;;;2.28;1.27;;;;;;;;;;5890652;28;20124;-74
2023/09/21 22:57:33;;;;;;;1.45;1.05;;;;;;;;;;5890234;28;20041;-75
2023/09/21 23:00:24;;;;;;;2.50;1.55;;;;;;;;;;5889084;28;20045;-74
2023/09/21 23:03:15;;;;;;;10.27;1.25;;;;;;;;;;5890108;28;20052;-74
2023/09/21 23:06:07;;;;;;;1.58;1.17;;;;;;;;;;5890403;28;20047;-76
2023/09/21 23:08:59;;;;;;;2.58;1.50;;;;;;;;;;5891095;28;20045;-75
2023/09/21 23:11:53;;;;;;;1.08;0.98;;;;;;;;;;5889757;28;20049;-75
2023/09/21 23:14:44;;;;;;;3.83;1.65;;;;;;;;;;5890291;28;20129;-74
2023/09/21 23:17:36;;;;;;;2.53;1.55;;;;;;;;;;5889994;28;20120;-74
2023/09/21 23:20:28;;;;;;;2.95;1.45;;;;;;;;;;5889950;28;20045;-75
2023/09/21 23:23:19;;;;;;;1.13;1.02;;;;;;;;;;5889899;28;20041;-76
2023/09/21 23:26:10;;;;;;;1.80;1.52;;;;;;;;;;5888989;28;20164;-74
2023/09/21 23:29:01;;;;;;;2.28;1.65;;;;;;;;;;5889978;28;20447;-76
2023/09/21 23:31:51;;;;;;;1.35;1.00;;;;;;;;;;5890268;28;20041;-75
2023/09/21 23:34:42;;;;;;;3.38;1.48;;;;;;;;;;5894934;28;20399;-74
2023/09/21 23:37:34;;;;;;;1.90;1.40;;;;;;;;;;5913079;28;20480;-75
2023/09/21 23:40:27;;;;;;;8.05;2.00;;;;;;;;;;5895305;28;20045;-75
2023/09/21 23:43:17;;;;;;;1.05;0.95;;;;;;;;;;5912936;28;20123;-74
2023/09/21 23:46:10;;;;;;;4.18;1.08;;;;;;;;;;5912795;28;20054;-74
2023/09/21 23:49:01;;;;;;;1.50;1.25;;;;;;;;;;5912932;28;20041;-75
2023/09/21 23:51:52;;;;;;;4.72;2.33;;;;;;;;;;5913138;28;20053;-75
2023/09/21 23:54:42;;;;;;;3.42;1.63;;;;;;;;;;5912999;28;20041;-75
2023/09/21 23:57:35;;;;;;;1.38;0.98;;;;;;;;;;5912545;28;20060;-74
